sensor_id;sensor_type;location;lat;lon;timestamp;temperature;humidity
26278;DHT22;14000;52.056;8.510;2023-02-18T00:01:15;8.10;99.90
26278;DHT22;14000;52.056;8.510;2023-02-18T00:03:41;8.20;99.90
26278;DHT22;14000;52.056;8.510;2023-02-18T00:06:20;8.20;99.90
26278;DHT22;14000;52.056;8.510;2023-02-18T00:08:46;8.20;99.90
26278;DHT22;14000;52.056;8.510;2023-02-18T00:11:12;8.20;99.90
26278;DHT22;14000;52.056;8.510;2023-02-18T00:13:38;8.20;99.90
26278;DHT22;14000;52.056;8.510;2023-02-18T00:16:06;8.20;99.90
26278;DHT22;14000;52.056;8.510;2023-02-18T00:18:32;8.20;99.90
26278;DHT22;14000;52.056;8.510;2023-02-18T00:20:58;8.20;99.90
26278;DHT22;14000;52.056;8.510;2023-02-18T00:23:24;8.20;99.90
26278;DHT22;14000;52.056;8.510;2023-02-18T00:25:57;8.20;99.90
26278;DHT22;14000;52.056;8.510;2023-02-18T00:28:22;8.20;99.90
26278;DHT22;14000;52.056;8.510;2023-02-18T00:30:48;8.20;99.90
26278;DHT22;14000;52.056;8.510;2023-02-18T00:33:13;8.20;99.90
26278;DHT22;14000;52.056;8.510;2023-02-18T00:35:39;8.20;99.90
26278;DHT22;14000;52.056;8.510;2023-02-18T00:38:05;8.20;99.90
26278;DHT22;14000;52.056;8.510;2023-02-18T00:40:30;8.20;99.90
26278;DHT22;14000;52.056;8.510;2023-02-18T00:42:56;8.30;99.90
26278;DHT22;14000;52.056;8.510;2023-02-18T00:45:21;8.30;99.90
26278;DHT22;14000;52.056;8.510;2023-02-18T00:47:47;8.30;99.90
26278;DHT22;14000;52.056;8.510;2023-02-18T00:50:12;8.30;99.90
26278;DHT22;14000;52.056;8.510;2023-02-18T00:52:38;8.40;99.90
26278;DHT22;14000;52.056;8.510;2023-02-18T00:55:04;8.40;99.90
26278;DHT22;14000;52.056;8.510;2023-02-18T00:57:29;8.40;99.90
26278;DHT22;14000;52.056;8.510;2023-02-18T00:59:55;8.40;99.90
26278;DHT22;14000;52.056;8.510;2023-02-18T01:02:20;8.50;99.90
26278;DHT22;14000;52.056;8.510;2023-02-18T01:04:46;8.50;99.90
26278;DHT22;14000;52.056;8.510;2023-02-18T01:07:11;8.50;99.90
26278;DHT22;14000;52.056;8.510;2023-02-18T01:09:38;8.50;99.90
26278;DHT22;14000;52.056;8.510;2023-02-18T01:12:04;8.60;99.90
26278;DHT22;14000;52.056;8.510;2023-02-18T01:14:29;8.60;99.90
26278;DHT22;14000;52.056;8.510;2023-02-18T01:16:55;8.60;99.90
26278;DHT22;14000;52.056;8.510;2023-02-18T01:19:20;8.60;99.90
26278;DHT22;14000;52.056;8.510;2023-02-18T01:21:46;8.60;99.90
26278;DHT22;14000;52.056;8.510;2023-02-18T01:24:12;8.60;99.90
26278;DHT22;14000;52.056;8.510;2023-02-18T01:26:37;8.60;99.90
26278;DHT22;14000;52.056;8.510;2023-02-18T01:29:03;8.70;99.90
26278;DHT22;14000;52.056;8.510;2023-02-18T01:31:28;8.70;99.90
26278;DHT22;14000;52.056;8.510;2023-02-18T01:33:54;8.70;99.90
26278;DHT22;14000;52.056;8.510;2023-02-18T01:36:20;8.70;99.90
26278;DHT22;14000;52.056;8.510;2023-02-18T01:38:45;8.80;99.90
26278;DHT22;14000;52.056;8.510;2023-02-18T01:41:11;8.80;99.90
26278;DHT22;14000;52.056;8.510;2023-02-18T01:43:37;8.80;99.90
26278;DHT22;14000;52.056;8.510;2023-02-18T01:46:13;8.80;99.90
26278;DHT22;14000;52.056;8.510;2023-02-18T01:48:42;8.80;99.90
26278;DHT22;14000;52.056;8.510;2023-02-18T01:51:24;8.80;99.90
26278;DHT22;14000;52.056;8.510;2023-02-18T01:59:14;8.90;99.90
26278;DHT22;14000;52.056;8.510;2023-02-18T02:01:42;8.90;99.90
26278;DHT22;14000;52.056;8.510;2023-02-18T02:04:08;9.00;99.90
26278;DHT22;14000;52.056;8.510;2023-02-18T02:06:34;9.00;99.90
26278;DHT22;14000;52.056;8.510;2023-02-18T02:09:02;9.00;99.90
26278;DHT22;14000;52.056;8.510;2023-02-18T02:14:22;9.10;99.90
26278;DHT22;14000;52.056;8.510;2023-02-18T02:17:20;9.20;99.90
26278;DHT22;14000;52.056;8.510;2023-02-18T02:20:00;9.20;99.90
26278;DHT22;14000;52.056;8.510;2023-02-18T02:22:59;9.20;99.90
26278;DHT22;14000;52.056;8.510;2023-02-18T02:25:52;9.30;99.90
26278;DHT22;14000;52.056;8.510;2023-02-18T02:28:54;9.30;99.90
26278;DHT22;14000;52.056;8.510;2023-02-18T02:34:56;9.30;99.90
26278;DHT22;14000;52.056;8.510;2023-02-18T02:37:54;9.30;99.90
26278;DHT22;14000;52.056;8.510;2023-02-18T02:43:11;9.30;99.90
26278;DHT22;14000;52.056;8.510;2023-02-18T02:46:02;9.30;99.90
26278;DHT22;14000;52.056;8.510;2023-02-18T02:48:49;9.30;99.90
26278;DHT22;14000;52.056;8.510;2023-02-18T02:54:14;9.30;99.90
26278;DHT22;14000;52.056;8.510;2023-02-18T02:56:40;9.40;99.90
26278;DHT22;14000;52.056;8.510;2023-02-18T02:59:09;9.40;99.90
26278;DHT22;14000;52.056;8.510;2023-02-18T03:04:22;9.40;99.90
26278;DHT22;14000;52.056;8.510;2023-02-18T03:07:13;9.50;99.90
26278;DHT22;14000;52.056;8.510;2023-02-18T03:12:49;9.50;99.90
26278;DHT22;14000;52.056;8.510;2023-02-18T03:26:24;9.70;99.90
26278;DHT22;14000;52.056;8.510;2023-02-18T03:28:52;9.70;99.90
26278;DHT22;14000;52.056;8.510;2023-02-18T03:31:20;9.70;99.90
26278;DHT22;14000;52.056;8.510;2023-02-18T03:33:54;9.70;99.90
26278;DHT22;14000;52.056;8.510;2023-02-18T03:36:22;9.70;99.90
26278;DHT22;14000;52.056;8.510;2023-02-18T03:39:08;9.70;99.90
26278;DHT22;14000;52.056;8.510;2023-02-18T03:41:35;9.80;99.90
26278;DHT22;14000;52.056;8.510;2023-02-18T03:44:05;9.70;99.90
26278;DHT22;14000;52.056;8.510;2023-02-18T03:46:32;9.70;99.90
26278;DHT22;14000;52.056;8.510;2023-02-18T03:48:58;9.70;99.90
26278;DHT22;14000;52.056;8.510;2023-02-18T03:51:24;9.60;99.90
26278;DHT22;14000;52.056;8.510;2023-02-18T03:57:11;9.60;99.90
26278;DHT22;14000;52.056;8.510;2023-02-18T03:59:37;9.60;99.90
26278;DHT22;14000;52.056;8.510;2023-02-18T04:02:03;9.70;99.90
26278;DHT22;14000;52.056;8.510;2023-02-18T04:04:28;9.70;99.90
26278;DHT22;14000;52.056;8.510;2023-02-18T04:06:54;9.60;99.90
26278;DHT22;14000;52.056;8.510;2023-02-18T04:09:20;9.70;99.90
26278;DHT22;14000;52.056;8.510;2023-02-18T04:11:45;9.70;99.90
26278;DHT22;14000;52.056;8.510;2023-02-18T04:14:12;9.70;99.90
26278;DHT22;14000;52.056;8.510;2023-02-18T04:16:39;9.70;99.90
26278;DHT22;14000;52.056;8.510;2023-02-18T04:19:04;9.70;99.90
26278;DHT22;14000;52.056;8.510;2023-02-18T04:21:30;9.70;99.90
26278;DHT22;14000;52.056;8.510;2023-02-18T04:23:56;9.70;99.90
26278;DHT22;14000;52.056;8.510;2023-02-18T04:26:21;9.70;99.90
26278;DHT22;14000;52.056;8.510;2023-02-18T04:28:47;9.70;99.90
26278;DHT22;14000;52.056;8.510;2023-02-18T04:31:13;9.70;99.90
26278;DHT22;14000;52.056;8.510;2023-02-18T04:33:39;9.80;99.90
26278;DHT22;14000;52.056;8.510;2023-02-18T04:36:05;9.80;99.90
26278;DHT22;14000;52.056;8.510;2023-02-18T04:38:31;9.80;99.90
26278;DHT22;14000;52.056;8.510;2023-02-18T04:40:57;9.80;99.90
26278;DHT22;14000;52.056;8.510;2023-02-18T04:43:22;9.80;99.90
26278;DHT22;14000;52.056;8.510;2023-02-18T04:45:48;9.90;99.90
26278;DHT22;14000;52.056;8.510;2023-02-18T04:48:14;9.80;99.90
26278;DHT22;14000;52.056;8.510;2023-02-18T04:50:40;9.90;99.90
26278;DHT22;14000;52.056;8.510;2023-02-18T04:53:05;9.80;99.90
26278;DHT22;14000;52.056;8.510;2023-02-18T04:55:31;9.90;99.90
26278;DHT22;14000;52.056;8.510;2023-02-18T04:57:57;9.90;99.90
26278;DHT22;14000;52.056;8.510;2023-02-18T05:00:22;9.90;99.90
26278;DHT22;14000;52.056;8.510;2023-02-18T05:02:48;9.90;99.90
26278;DHT22;14000;52.056;8.510;2023-02-18T05:05:14;9.90;99.90
26278;DHT22;14000;52.056;8.510;2023-02-18T05:07:40;9.90;99.90
26278;DHT22;14000;52.056;8.510;2023-02-18T05:10:08;9.90;99.90
26278;DHT22;14000;52.056;8.510;2023-02-18T05:12:33;9.90;99.90
26278;DHT22;14000;52.056;8.510;2023-02-18T05:14:59;9.90;99.90
26278;DHT22;14000;52.056;8.510;2023-02-18T05:17:24;10.00;99.90
26278;DHT22;14000;52.056;8.510;2023-02-18T05:19:50;10.00;99.90
26278;DHT22;14000;52.056;8.510;2023-02-18T05:22:16;9.90;99.90
26278;DHT22;14000;52.056;8.510;2023-02-18T05:24:41;9.90;99.90
26278;DHT22;14000;52.056;8.510;2023-02-18T05:27:07;9.90;99.90
26278;DHT22;14000;52.056;8.510;2023-02-18T05:29:32;10.00;99.90
26278;DHT22;14000;52.056;8.510;2023-02-18T05:31:58;9.90;99.90
26278;DHT22;14000;52.056;8.510;2023-02-18T05:34:24;10.00;99.90
26278;DHT22;14000;52.056;8.510;2023-02-18T05:36:49;10.00;99.90
26278;DHT22;14000;52.056;8.510;2023-02-18T05:39:15;10.00;99.90
26278;DHT22;14000;52.056;8.510;2023-02-18T05:41:40;10.00;99.90
26278;DHT22;14000;52.056;8.510;2023-02-18T05:44:06;10.00;99.90
26278;DHT22;14000;52.056;8.510;2023-02-18T05:46:50;10.00;99.90
26278;DHT22;14000;52.056;8.510;2023-02-18T05:49:16;10.00;99.90
26278;DHT22;14000;52.056;8.510;2023-02-18T05:51:41;10.00;99.90
26278;DHT22;14000;52.056;8.510;2023-02-18T05:54:07;10.00;99.90
26278;DHT22;14000;52.056;8.510;2023-02-18T05:56:33;10.00;99.90
26278;DHT22;14000;52.056;8.510;2023-02-18T05:58:58;10.00;99.90
26278;DHT22;14000;52.056;8.510;2023-02-18T06:01:24;10.00;99.90
26278;DHT22;14000;52.056;8.510;2023-02-18T06:03:50;10.00;99.90
26278;DHT22;14000;52.056;8.510;2023-02-18T06:06:15;10.00;99.90
26278;DHT22;14000;52.056;8.510;2023-02-18T06:08:41;10.00;99.90
26278;DHT22;14000;52.056;8.510;2023-02-18T06:11:06;10.00;99.90
26278;DHT22;14000;52.056;8.510;2023-02-18T06:13:32;10.00;99.90
26278;DHT22;14000;52.056;8.510;2023-02-18T06:15:57;10.00;99.90
26278;DHT22;14000;52.056;8.510;2023-02-18T06:18:23;10.00;99.90
26278;DHT22;14000;52.056;8.510;2023-02-18T06:20:49;10.00;99.90
26278;DHT22;14000;52.056;8.510;2023-02-18T06:23:15;10.00;99.90
26278;DHT22;14000;52.056;8.510;2023-02-18T06:25:41;10.00;99.90
26278;DHT22;14000;52.056;8.510;2023-02-18T06:28:07;10.00;99.90
26278;DHT22;14000;52.056;8.510;2023-02-18T06:30:33;10.10;99.90
26278;DHT22;14000;52.056;8.510;2023-02-18T06:32:58;10.10;99.90
26278;DHT22;14000;52.056;8.510;2023-02-18T06:35:24;10.10;99.90
26278;DHT22;14000;52.056;8.510;2023-02-18T06:37:49;10.10;99.90
26278;DHT22;14000;52.056;8.510;2023-02-18T06:40:15;10.10;99.90
26278;DHT22;14000;52.056;8.510;2023-02-18T06:42:42;10.00;99.90
26278;DHT22;14000;52.056;8.510;2023-02-18T06:45:08;10.00;99.90
26278;DHT22;14000;52.056;8.510;2023-02-18T06:47:34;10.00;99.90
26278;DHT22;14000;52.056;8.510;2023-02-18T06:49:59;10.00;99.90
26278;DHT22;14000;52.056;8.510;2023-02-18T06:52:25;10.00;99.90
26278;DHT22;14000;52.056;8.510;2023-02-18T06:54:51;10.10;99.90
26278;DHT22;14000;52.056;8.510;2023-02-18T06:57:16;10.00;99.90
26278;DHT22;14000;52.056;8.510;2023-02-18T06:59:42;10.00;99.90
26278;DHT22;14000;52.056;8.510;2023-02-18T07:02:10;10.00;99.90
26278;DHT22;14000;52.056;8.510;2023-02-18T07:04:36;10.00;99.90
26278;DHT22;14000;52.056;8.510;2023-02-18T07:07:02;10.10;99.90
26278;DHT22;14000;52.056;8.510;2023-02-18T07:09:28;10.00;99.90
26278;DHT22;14000;52.056;8.510;2023-02-18T07:11:53;10.00;99.90
26278;DHT22;14000;52.056;8.510;2023-02-18T07:14:19;10.00;99.90
26278;DHT22;14000;52.056;8.510;2023-02-18T07:16:44;10.00;99.90
26278;DHT22;14000;52.056;8.510;2023-02-18T07:19:10;10.00;99.90
26278;DHT22;14000;52.056;8.510;2023-02-18T07:21:35;10.00;99.90
26278;DHT22;14000;52.056;8.510;2023-02-18T07:24:01;10.00;99.90
26278;DHT22;14000;52.056;8.510;2023-02-18T07:26:27;10.00;99.90
26278;DHT22;14000;52.056;8.510;2023-02-18T07:28:52;10.00;99.90
26278;DHT22;14000;52.056;8.510;2023-02-18T07:31:18;10.00;99.90
26278;DHT22;14000;52.056;8.510;2023-02-18T07:33:43;10.00;99.90
26278;DHT22;14000;52.056;8.510;2023-02-18T07:36:09;10.10;99.90
26278;DHT22;14000;52.056;8.510;2023-02-18T07:38:35;10.00;99.90
26278;DHT22;14000;52.056;8.510;2023-02-18T07:41:00;10.10;99.90
26278;DHT22;14000;52.056;8.510;2023-02-18T07:43:26;10.00;99.90
26278;DHT22;14000;52.056;8.510;2023-02-18T07:45:51;10.00;99.90
26278;DHT22;14000;52.056;8.510;2023-02-18T07:48:17;10.00;99.90
26278;DHT22;14000;52.056;8.510;2023-02-18T07:50:44;10.00;99.90
26278;DHT22;14000;52.056;8.510;2023-02-18T07:53:11;10.00;99.90
26278;DHT22;14000;52.056;8.510;2023-02-18T07:55:37;10.00;99.90
26278;DHT22;14000;52.056;8.510;2023-02-18T07:58:24;10.00;99.90
26278;DHT22;14000;52.056;8.510;2023-02-18T08:00:50;10.00;99.90
26278;DHT22;14000;52.056;8.510;2023-02-18T08:03:17;10.10;99.90
26278;DHT22;14000;52.056;8.510;2023-02-18T08:05:43;10.00;99.90
26278;DHT22;14000;52.056;8.510;2023-02-18T08:08:12;10.00;99.90
26278;DHT22;14000;52.056;8.510;2023-02-18T08:10:38;10.00;99.90
26278;DHT22;14000;52.056;8.510;2023-02-18T08:13:04;10.00;99.90
26278;DHT22;14000;52.056;8.510;2023-02-18T08:15:29;10.00;99.90
26278;DHT22;14000;52.056;8.510;2023-02-18T08:17:55;10.00;99.90
26278;DHT22;14000;52.056;8.510;2023-02-18T08:20:20;10.00;99.90
26278;DHT22;14000;52.056;8.510;2023-02-18T08:22:46;10.00;99.90
26278;DHT22;14000;52.056;8.510;2023-02-18T08:25:12;10.00;99.90
26278;DHT22;14000;52.056;8.510;2023-02-18T08:27:37;10.10;99.90
26278;DHT22;14000;52.056;8.510;2023-02-18T08:30:03;10.00;99.90
26278;DHT22;14000;52.056;8.510;2023-02-18T08:32:29;10.00;99.90
26278;DHT22;14000;52.056;8.510;2023-02-18T08:34:55;10.00;99.90
26278;DHT22;14000;52.056;8.510;2023-02-18T08:37:20;10.00;99.90
26278;DHT22;14000;52.056;8.510;2023-02-18T08:39:46;10.00;99.90
26278;DHT22;14000;52.056;8.510;2023-02-18T08:42:12;10.00;99.90
26278;DHT22;14000;52.056;8.510;2023-02-18T08:44:37;9.90;99.90
26278;DHT22;14000;52.056;8.510;2023-02-18T08:47:03;9.90;99.90
26278;DHT22;14000;52.056;8.510;2023-02-18T08:49:28;10.00;99.90
26278;DHT22;14000;52.056;8.510;2023-02-18T08:51:54;10.00;99.90
26278;DHT22;14000;52.056;8.510;2023-02-18T08:54:20;10.00;99.90
26278;DHT22;14000;52.056;8.510;2023-02-18T08:56:46;10.00;99.90
26278;DHT22;14000;52.056;8.510;2023-02-18T08:59:12;10.00;99.90
26278;DHT22;14000;52.056;8.510;2023-02-18T09:01:37;10.00;99.90
26278;DHT22;14000;52.056;8.510;2023-02-18T09:04:03;10.00;99.90
26278;DHT22;14000;52.056;8.510;2023-02-18T09:06:28;10.00;99.90
26278;DHT22;14000;52.056;8.510;2023-02-18T09:08:54;10.00;99.90
26278;DHT22;14000;52.056;8.510;2023-02-18T09:11:20;10.00;99.90
26278;DHT22;14000;52.056;8.510;2023-02-18T09:13:46;9.90;99.90
26278;DHT22;14000;52.056;8.510;2023-02-18T09:16:16;9.90;99.90
26278;DHT22;14000;52.056;8.510;2023-02-18T09:18:43;9.90;99.90
26278;DHT22;14000;52.056;8.510;2023-02-18T09:21:11;9.90;99.90
26278;DHT22;14000;52.056;8.510;2023-02-18T09:23:38;9.90;99.90
26278;DHT22;14000;52.056;8.510;2023-02-18T09:26:05;10.00;99.90
26278;DHT22;14000;52.056;8.510;2023-02-18T09:28:32;9.90;99.90
26278;DHT22;14000;52.056;8.510;2023-02-18T09:31:09;9.90;99.90
26278;DHT22;14000;52.056;8.510;2023-02-18T09:33:37;9.90;99.90
26278;DHT22;14000;52.056;8.510;2023-02-18T09:36:03;9.90;99.90
26278;DHT22;14000;52.056;8.510;2023-02-18T09:38:28;9.90;99.90
26278;DHT22;14000;52.056;8.510;2023-02-18T09:40:55;9.90;99.90
26278;DHT22;14000;52.056;8.510;2023-02-18T09:43:42;9.90;99.90
26278;DHT22;14000;52.056;8.510;2023-02-18T09:46:31;9.90;99.90
26278;DHT22;14000;52.056;8.510;2023-02-18T09:49:01;9.90;99.90
26278;DHT22;14000;52.056;8.510;2023-02-18T09:51:27;9.90;99.90
26278;DHT22;14000;52.056;8.510;2023-02-18T09:53:52;9.90;99.90
26278;DHT22;14000;52.056;8.510;2023-02-18T09:56:30;9.90;99.90
26278;DHT22;14000;52.056;8.510;2023-02-18T09:58:58;9.80;99.90
26278;DHT22;14000;52.056;8.510;2023-02-18T10:01:31;9.90;99.90
26278;DHT22;14000;52.056;8.510;2023-02-18T10:04:01;9.80;99.90
26278;DHT22;14000;52.056;8.510;2023-02-18T10:06:32;9.80;99.90
26278;DHT22;14000;52.056;8.510;2023-02-18T10:09:05;9.80;99.90
26278;DHT22;14000;52.056;8.510;2023-02-18T10:11:40;9.80;99.90
26278;DHT22;14000;52.056;8.510;2023-02-18T10:14:10;9.80;99.90
26278;DHT22;14000;52.056;8.510;2023-02-18T10:16:37;9.70;99.90
26278;DHT22;14000;52.056;8.510;2023-02-18T10:21:44;9.80;99.90
26278;DHT22;14000;52.056;8.510;2023-02-18T10:24:31;9.60;99.90
26278;DHT22;14000;52.056;8.510;2023-02-18T10:26:58;9.60;99.90
26278;DHT22;14000;52.056;8.510;2023-02-18T10:29:25;9.60;99.90
26278;DHT22;14000;52.056;8.510;2023-02-18T10:40:27;9.60;99.90
26278;DHT22;14000;52.056;8.510;2023-02-18T10:51:39;9.50;99.90
26278;DHT22;14000;52.056;8.510;2023-02-18T10:54:07;9.50;99.90
26278;DHT22;14000;52.056;8.510;2023-02-18T10:59:19;9.50;99.90
26278;DHT22;14000;52.056;8.510;2023-02-18T11:02:01;9.50;99.90
26278;DHT22;14000;52.056;8.510;2023-02-18T11:04:37;9.50;99.90
26278;DHT22;14000;52.056;8.510;2023-02-18T11:07:09;9.50;99.90
26278;DHT22;14000;52.056;8.510;2023-02-18T11:09:41;9.50;99.90
26278;DHT22;14000;52.056;8.510;2023-02-18T11:12:23;9.40;99.90
26278;DHT22;14000;52.056;8.510;2023-02-18T11:17:37;9.30;99.90
26278;DHT22;14000;52.056;8.510;2023-02-18T11:20:30;9.30;99.90
26278;DHT22;14000;52.056;8.510;2023-02-18T11:22:59;9.30;99.90
26278;DHT22;14000;52.056;8.510;2023-02-18T11:25:39;9.30;99.90
26278;DHT22;14000;52.056;8.510;2023-02-18T11:30:39;9.30;99.90
26278;DHT22;14000;52.056;8.510;2023-02-18T11:33:09;9.30;99.90
26278;DHT22;14000;52.056;8.510;2023-02-18T11:35:51;9.30;99.90
26278;DHT22;14000;52.056;8.510;2023-02-18T11:38:40;9.20;99.90
26278;DHT22;14000;52.056;8.510;2023-02-18T11:41:10;9.20;99.90
26278;DHT22;14000;52.056;8.510;2023-02-18T11:43:40;9.20;99.90
26278;DHT22;14000;52.056;8.510;2023-02-18T11:46:12;9.20;99.90
26278;DHT22;14000;52.056;8.510;2023-02-18T11:48:39;9.20;99.90
26278;DHT22;14000;52.056;8.510;2023-02-18T11:51:10;9.20;99.90
26278;DHT22;14000;52.056;8.510;2023-02-18T11:53:50;9.20;99.90
26278;DHT22;14000;52.056;8.510;2023-02-18T11:56:18;9.20;99.90
26278;DHT22;14000;52.056;8.510;2023-02-18T11:58:47;9.20;99.90
26278;DHT22;14000;52.056;8.510;2023-02-18T12:04:08;9.20;99.90
26278;DHT22;14000;52.056;8.510;2023-02-18T12:09:35;9.20;99.90
26278;DHT22;14000;52.056;8.510;2023-02-18T12:12:13;9.20;99.90
26278;DHT22;14000;52.056;8.510;2023-02-18T12:14:40;9.20;99.90
26278;DHT22;14000;52.056;8.510;2023-02-18T12:22:41;9.30;99.90
26278;DHT22;14000;52.056;8.510;2023-02-18T12:30:54;9.30;99.90
26278;DHT22;14000;52.056;8.510;2023-02-18T12:38:58;9.20;99.90
26278;DHT22;14000;52.056;8.510;2023-02-18T12:41:42;9.20;99.90
26278;DHT22;14000;52.056;8.510;2023-02-18T12:48:04;9.20;99.90
26278;DHT22;14000;52.056;8.510;2023-02-18T12:53:43;9.20;99.90
26278;DHT22;14000;52.056;8.510;2023-02-18T12:59:17;9.20;99.90
26278;DHT22;14000;52.056;8.510;2023-02-18T13:04:48;9.20;99.90
26278;DHT22;14000;52.056;8.510;2023-02-18T13:07:26;9.20;99.90
26278;DHT22;14000;52.056;8.510;2023-02-18T13:10:06;9.20;99.90
26278;DHT22;14000;52.056;8.510;2023-02-18T13:17:58;9.40;99.90
26278;DHT22;14000;52.056;8.510;2023-02-18T13:23:20;9.20;99.90
26278;DHT22;14000;52.056;8.510;2023-02-18T13:25:50;9.30;99.90
26278;DHT22;14000;52.056;8.510;2023-02-18T13:28:22;9.20;99.90
26278;DHT22;14000;52.056;8.510;2023-02-18T13:33:34;9.30;99.90
26278;DHT22;14000;52.056;8.510;2023-02-18T13:39:05;9.20;99.90
26278;DHT22;14000;52.056;8.510;2023-02-18T13:41:40;9.30;99.90
26278;DHT22;14000;52.056;8.510;2023-02-18T13:46:58;9.30;99.90
26278;DHT22;14000;52.056;8.510;2023-02-18T13:49:26;9.30;99.90
26278;DHT22;14000;52.056;8.510;2023-02-18T13:51:57;9.30;99.90
26278;DHT22;14000;52.056;8.510;2023-02-18T13:54:27;9.30;99.90
26278;DHT22;14000;52.056;8.510;2023-02-18T13:57:04;9.30;99.90
26278;DHT22;14000;52.056;8.510;2023-02-18T13:59:42;9.40;99.90
26278;DHT22;14000;52.056;8.510;2023-02-18T14:20:31;9.60;99.90
26278;DHT22;14000;52.056;8.510;2023-02-18T14:25:38;9.50;99.90
26278;DHT22;14000;52.056;8.510;2023-02-18T14:31:01;9.60;99.90
26278;DHT22;14000;52.056;8.510;2023-02-18T14:33:31;9.60;99.90
26278;DHT22;14000;52.056;8.510;2023-02-18T14:36:24;9.50;99.90
26278;DHT22;14000;52.056;8.510;2023-02-18T14:50:54;9.60;99.90
26278;DHT22;14000;52.056;8.510;2023-02-18T14:53:23;9.60;99.90
26278;DHT22;14000;52.056;8.510;2023-02-18T14:55:54;9.60;99.90
26278;DHT22;14000;52.056;8.510;2023-02-18T14:58:36;9.60;99.90
26278;DHT22;14000;52.056;8.510;2023-02-18T15:01:12;9.60;99.90
26278;DHT22;14000;52.056;8.510;2023-02-18T15:03:40;9.60;99.90
26278;DHT22;14000;52.056;8.510;2023-02-18T15:06:21;9.60;99.90
26278;DHT22;14000;52.056;8.510;2023-02-18T15:08:47;9.60;99.90
26278;DHT22;14000;52.056;8.510;2023-02-18T15:11:13;9.60;99.90
26278;DHT22;14000;52.056;8.510;2023-02-18T15:13:43;9.60;99.90
26278;DHT22;14000;52.056;8.510;2023-02-18T15:16:30;9.70;99.90
26278;DHT22;14000;52.056;8.510;2023-02-18T15:19:01;9.70;99.90
26278;DHT22;14000;52.056;8.510;2023-02-18T15:21:38;9.70;99.90
26278;DHT22;14000;52.056;8.510;2023-02-18T15:24:08;9.70;99.90
26278;DHT22;14000;52.056;8.510;2023-02-18T15:26:41;9.70;99.90
26278;DHT22;14000;52.056;8.510;2023-02-18T15:29:17;9.70;99.90
26278;DHT22;14000;52.056;8.510;2023-02-18T15:31:45;9.70;99.90
26278;DHT22;14000;52.056;8.510;2023-02-18T15:34:32;9.80;99.90
26278;DHT22;14000;52.056;8.510;2023-02-18T15:36:59;9.80;99.90
26278;DHT22;14000;52.056;8.510;2023-02-18T15:39:25;9.80;99.90
26278;DHT22;14000;52.056;8.510;2023-02-18T15:41:54;9.80;99.90
26278;DHT22;14000;52.056;8.510;2023-02-18T15:44:26;9.80;99.90
26278;DHT22;14000;52.056;8.510;2023-02-18T15:46:53;9.90;99.90
26278;DHT22;14000;52.056;8.510;2023-02-18T15:49:21;9.80;99.90
26278;DHT22;14000;52.056;8.510;2023-02-18T15:51:49;9.80;99.90
26278;DHT22;14000;52.056;8.510;2023-02-18T15:54:18;9.80;99.90
26278;DHT22;14000;52.056;8.510;2023-02-18T15:56:48;9.80;99.90
26278;DHT22;14000;52.056;8.510;2023-02-18T15:59:28;9.80;99.90
26278;DHT22;14000;52.056;8.510;2023-02-18T16:04:36;9.80;99.90
26278;DHT22;14000;52.056;8.510;2023-02-18T16:07:18;9.70;99.90
26278;DHT22;14000;52.056;8.510;2023-02-18T16:09:44;9.70;99.90
26278;DHT22;14000;52.056;8.510;2023-02-18T16:12:25;9.70;99.90
26278;DHT22;14000;52.056;8.510;2023-02-18T16:14:53;9.70;99.90
26278;DHT22;14000;52.056;8.510;2023-02-18T16:17:22;9.70;99.90
26278;DHT22;14000;52.056;8.510;2023-02-18T16:19:50;9.70;99.90
26278;DHT22;14000;52.056;8.510;2023-02-18T16:24:48;9.70;99.90
26278;DHT22;14000;52.056;8.510;2023-02-18T16:27:16;9.70;99.90
26278;DHT22;14000;52.056;8.510;2023-02-18T16:29:43;9.70;99.90
26278;DHT22;14000;52.056;8.510;2023-02-18T16:32:09;9.70;99.90
26278;DHT22;14000;52.056;8.510;2023-02-18T16:34:34;9.70;99.90
26278;DHT22;14000;52.056;8.510;2023-02-18T16:37:01;9.70;99.90
26278;DHT22;14000;52.056;8.510;2023-02-18T16:39:45;9.70;99.90
26278;DHT22;14000;52.056;8.510;2023-02-18T16:42:12;9.70;99.90
26278;DHT22;14000;52.056;8.510;2023-02-18T16:44:38;9.70;99.90
26278;DHT22;14000;52.056;8.510;2023-02-18T16:47:04;9.70;99.90
26278;DHT22;14000;52.056;8.510;2023-02-18T16:49:31;9.70;99.90
26278;DHT22;14000;52.056;8.510;2023-02-18T16:51:59;9.70;99.90
26278;DHT22;14000;52.056;8.510;2023-02-18T16:54:25;9.70;99.90
26278;DHT22;14000;52.056;8.510;2023-02-18T16:56:52;9.70;99.90
26278;DHT22;14000;52.056;8.510;2023-02-18T16:59:18;9.70;99.90
26278;DHT22;14000;52.056;8.510;2023-02-18T17:01:44;9.70;99.90
26278;DHT22;14000;52.056;8.510;2023-02-18T17:04:12;9.70;99.90
26278;DHT22;14000;52.056;8.510;2023-02-18T17:06:39;9.70;99.90
26278;DHT22;14000;52.056;8.510;2023-02-18T17:09:17;9.70;99.90
26278;DHT22;14000;52.056;8.510;2023-02-18T17:11:46;9.70;99.90
26278;DHT22;14000;52.056;8.510;2023-02-18T17:14:16;9.70;99.90
26278;DHT22;14000;52.056;8.510;2023-02-18T17:16:44;9.70;99.90
26278;DHT22;14000;52.056;8.510;2023-02-18T17:19:10;9.70;99.90
26278;DHT22;14000;52.056;8.510;2023-02-18T17:21:36;9.70;99.90
26278;DHT22;14000;52.056;8.510;2023-02-18T17:24:01;9.70;99.90
26278;DHT22;14000;52.056;8.510;2023-02-18T17:26:29;9.70;99.90
26278;DHT22;14000;52.056;8.510;2023-02-18T17:28:57;9.70;99.90
26278;DHT22;14000;52.056;8.510;2023-02-18T17:31:28;9.80;99.90
26278;DHT22;14000;52.056;8.510;2023-02-18T17:33:57;9.80;99.90
26278;DHT22;14000;52.056;8.510;2023-02-18T17:36:24;9.80;99.90
26278;DHT22;14000;52.056;8.510;2023-02-18T17:38:50;9.80;99.90
26278;DHT22;14000;52.056;8.510;2023-02-18T17:41:16;9.80;99.90
26278;DHT22;14000;52.056;8.510;2023-02-18T17:43:42;9.80;99.90
26278;DHT22;14000;52.056;8.510;2023-02-18T17:46:11;9.80;99.90
26278;DHT22;14000;52.056;8.510;2023-02-18T17:48:38;9.80;99.90
26278;DHT22;14000;52.056;8.510;2023-02-18T17:51:04;9.80;99.90
26278;DHT22;14000;52.056;8.510;2023-02-18T17:53:34;9.80;99.90
26278;DHT22;14000;52.056;8.510;2023-02-18T17:56:00;9.80;99.90
26278;DHT22;14000;52.056;8.510;2023-02-18T17:58:26;9.80;99.90
26278;DHT22;14000;52.056;8.510;2023-02-18T18:00:56;9.80;99.90
26278;DHT22;14000;52.056;8.510;2023-02-18T18:03:22;9.80;99.90
26278;DHT22;14000;52.056;8.510;2023-02-18T18:05:49;9.80;99.90
26278;DHT22;14000;52.056;8.510;2023-02-18T18:08:17;9.80;99.90
26278;DHT22;14000;52.056;8.510;2023-02-18T18:10:49;9.80;99.90
26278;DHT22;14000;52.056;8.510;2023-02-18T18:13:22;9.80;99.90
26278;DHT22;14000;52.056;8.510;2023-02-18T18:15:48;9.90;99.90
26278;DHT22;14000;52.056;8.510;2023-02-18T18:18:14;9.90;99.90
26278;DHT22;14000;52.056;8.510;2023-02-18T18:20:42;9.80;99.90
26278;DHT22;14000;52.056;8.510;2023-02-18T18:23:11;9.90;99.90
26278;DHT22;14000;52.056;8.510;2023-02-18T18:25:39;9.80;99.90
26278;DHT22;14000;52.056;8.510;2023-02-18T18:28:06;9.90;99.90
26278;DHT22;14000;52.056;8.510;2023-02-18T18:30:34;9.90;99.90
26278;DHT22;14000;52.056;8.510;2023-02-18T18:33:01;9.90;99.90